^^
Station Historical Data
Daily Summary for November 4, 2017 Units:  Metric    English   Both
« Previous Day
Next Day »
Daily Weekly Monthly Yearly Custom
  High: Low: Average:
Temperature: 33.6 °C 14.3 °C 21.6 °C
Dew Point: 10.3 °C 2.5 °C 8.8 °C
Humidity: 74% 19% 51%
Wind Speed: 22.7km/h 0km/h 10.6km/h
Wind Gust: 29km/h - -
Wind- - SW
Pressure: 1017.8 hPa 1012.8 hPa -
Precipitation: 0 mm    
Historical Graphs
 
 
Tabular Data for November 4, 2017
Time Temperature Dew Point Pressure Wind Wind Speed Wind Gust Humidity Rainfall Rate (Hourly) solar Conditions
02:03 15.4 °C 9.5 °C 1015.5 hPa SW 14.3 km/h 22.5 km/h 68% 0 mm 0.0 W/m2
02:08 15.4 °C 9.5 °C 1015.5 hPa SW 20.9 km/h 24.1 km/h 68% 0 mm 0.0 W/m2
02:13 15.3 °C 9.4 °C 1015.5 hPa SW 16.3 km/h 22.5 km/h 68% 0 mm 0.0 W/m2
02:18 15.3 °C 9.4 °C 1015.5 hPa SW 13 km/h 22.5 km/h 68% 0 mm 0.0 W/m2
02:23 15.3 °C 9.4 °C 1015.5 hPa SW 14.3 km/h 22.5 km/h 68% 0 mm 0.0 W/m2
02:28 15.3 °C 9.4 °C 1015.5 hPa SW 14.3 km/h 17.7 km/h 68% 0 mm 0.0 W/m2
02:33 15.3 °C 9.4 °C 1015.1 hPa SW 19.5 km/h 24.1 km/h 68% 0 mm 0.0 W/m2
02:43 15.2 °C 9.3 °C 1015.1 hPa SW 19.5 km/h 22.5 km/h 68% 0 mm 0.0 W/m2
02:48 15.1 °C 9.5 °C 1015.1 hPa SW 16.3 km/h 24.1 km/h 69% 0 mm 0.0 W/m2
02:58 15.1 °C 9.2 °C 1015.1 hPa SW 20.9 km/h 22.5 km/h 68% 0 mm 0.0 W/m2
03:03 15.1 °C 9.2 °C 1015.1 hPa SW 16.3 km/h 20.9 km/h 68% 0 mm 0.0 W/m2
03:08 15.1 °C 9.2 °C 1015.1 hPa SW 13 km/h 17.7 km/h 68% 0 mm 0.0 W/m2
03:13 15.1 °C 9.2 °C 1015.5 hPa SW 14.3 km/h 14.5 km/h 68% 0 mm 0.0 W/m2
03:18 15.1 °C 9.2 °C 1015.1 hPa SW 13 km/h 16.1 km/h 68% 0 mm 0.0 W/m2
03:23 15.1 °C 9.2 °C 1015.1 hPa SW 14.3 km/h 17.7 km/h 68% 0 mm 0.0 W/m2
03:28 15 °C 9.1 °C 1015.1 hPa SW 9.7 km/h 17.7 km/h 68% 0 mm 0.0 W/m2
03:38 15 °C 9.4 °C 1015.1 hPa SW 9.7 km/h 16.1 km/h 69% 0 mm 0.0 W/m2
03:43 14.9 °C 9.3 °C 1015.5 hPa SW 17.7 km/h 19.3 km/h 69% 0 mm 0.0 W/m2
03:48 14.9 °C 9.3 °C 1015.5 hPa SW 14.3 km/h 14.5 km/h 69% 0 mm 0.0 W/m2
03:53 14.9 °C 9.3 °C 1015.1 hPa SW 13 km/h 17.7 km/h 69% 0 mm 0.0 W/m2
03:58 14.9 °C 9.3 °C 1015.1 hPa SW 14.3 km/h 17.7 km/h 69% 0 mm 0.0 W/m2
04:03 14.9 °C 9.3 °C 1015.5 hPa SW 11.1 km/h 16.1 km/h 69% 0 mm 0.0 W/m2
04:09 14.8 °C 9.2 °C 1015.5 hPa SW 11.1 km/h 12.9 km/h 69% 0 mm 0.0 W/m2
04:14 14.8 °C 9.4 °C 1015.5 hPa SW 11.1 km/h 19.3 km/h 70% 0 mm 0.0 W/m2
04:19 14.8 °C 9.4 °C 1015.5 hPa SW 13 km/h 17.7 km/h 70% 0 mm 0.0 W/m2
04:24 14.8 °C 9.4 °C 1015.5 hPa SW 11.1 km/h 14.5 km/h 70% 0 mm 0.0 W/m2
04:34 14.7 °C 9.3 °C 1015.5 hPa SW 13 km/h 16.1 km/h 70% 0 mm 0.0 W/m2
04:39 14.7 °C 9.5 °C 1015.5 hPa SW 9.7 km/h 14.5 km/h 71% 0 mm 0.0 W/m2
04:44 14.7 °C 9.5 °C 1015.5 hPa SW 7.9 km/h 12.9 km/h 71% 0 mm 0.0 W/m2
04:50 14.7 °C 9.5 °C 1015.5 hPa SW 7.9 km/h 11.3 km/h 71% 0 mm 0.0 W/m2
04:55 14.6 °C 9.4 °C 1015.5 hPa SW 16.3 km/h 17.7 km/h 71% 0 mm 0.0 W/m2
05:05 14.6 °C 9.4 °C 1015.5 hPa SW 13 km/h 16.1 km/h 71% 0 mm 0.0 W/m2
05:10 14.6 °C 9.4 °C 1015.8 hPa SW 11.1 km/h 16.1 km/h 71% 0 mm 0.0 W/m2
05:14 14.6 °C 9.4 °C 1015.8 hPa SW 9.7 km/h 14.5 km/h 71% 0 mm 0.0 W/m2
05:25 14.6 °C 9.4 °C 1015.8 hPa SW 13 km/h 14.5 km/h 71% 0 mm 0.0 W/m2
05:44 14.4 °C 9.2 °C 1016.1 hPa SW 11.1 km/h 14.5 km/h 71% 0 mm 0.0 W/m2
05:50 14.4 °C 9.2 °C 1016.1 hPa SW 9.7 km/h 11.3 km/h 71% 0 mm 0.0 W/m2
06:21 14.3 °C 9.5 °C 1016.8 hPa SW 9.7 km/h 12.9 km/h 73% 0 mm 14.0 W/m2
06:31 14.3 °C 9.7 °C 1016.8 hPa SW 7.9 km/h 9.7 km/h 74% 0 mm 19.0 W/m2
06:41 14.3 °C 9.7 °C 1016.8 hPa SW 9.7 km/h 12.9 km/h 74% 0 mm 25.0 W/m2
06:46 14.4 °C 9.8 °C 1016.8 hPa SW 11.1 km/h 12.9 km/h 74% 0 mm 91.0 W/m2
06:51 14.6 °C 9.8 °C 1016.8 hPa SW 13 km/h 14.5 km/h 73% 0 mm 109.0 W/m2
06:56 14.7 °C 9.9 °C 1016.8 hPa SW 9.7 km/h 12.9 km/h 73% 0 mm 128.0 W/m2
07:00 14.8 °C 9.8 °C 1016.8 hPa SW 11.1 km/h 14.5 km/h 72% 0 mm 149.0 W/m2
07:09 14.9 °C 9.9 °C 1016.8 hPa SW 11.1 km/h 12.9 km/h 72% 0 mm 169.0 W/m2
07:21 15.2 °C 9.8 °C 1017.2 hPa SW 11.1 km/h 14.5 km/h 70% 0 mm 211.0 W/m2
07:31 15.5 °C 9.8 °C 1017.2 hPa SW 13 km/h 14.5 km/h 69% 0 mm 265.0 W/m2
07:51 15.9 °C 10 °C 1017.2 hPa SW 9.7 km/h 12.9 km/h 68% 0 mm 327.0 W/m2
08:01 16.4 °C 10 °C 1017.5 hPa SW 7.9 km/h 12.9 km/h 66% 0 mm 371.0 W/m2
08:16 16.8 °C 10.2 °C 1017.5 hPa SW 11.1 km/h 14.5 km/h 65% 0 mm 343.0 W/m2
08:30 17.1 °C 10 °C 1017.5 hPa SW 13 km/h 17.7 km/h 63% 0 mm 436.0 W/m2
08:40 17.3 °C 10.2 °C 1017.5 hPa SW 13 km/h 14.5 km/h 63% 0 mm 476.0 W/m2
08:51 17.6 °C 10.2 °C 1017.8 hPa SW 13 km/h 16.1 km/h 62% 0 mm 519.0 W/m2
09:03 18.2 °C 10.3 °C 1017.8 hPa SW 14.3 km/h 14.5 km/h 60% 0 mm 568.0 W/m2
11:23 26.4 °C 9.7 °C 1016.8 hPa Calm     35% 0 mm 888.0 W/m2
11:38 26.9 °C 9.7 °C 1016.8 hPa Calm     34% 0 mm 896.0 W/m2
11:54 27.6 °C 8 °C 1016.8 hPa Calm     29% 0 mm 912.0 W/m2
12:11 28.3 °C 8 °C 1016.5 hPa Calm     28% 0 mm 926.0 W/m2
12:24 29.1 °C 7.6 °C 1016.1 hPa Calm     26% 0 mm 928.0 W/m2
12:44 29.9 °C 7.7 °C 1015.8 hPa Calm     25% 0 mm 930.0 W/m2
12:54 30.6 °C 7.7 °C 1015.8 hPa SW 1.4 km/h 3.2 km/h 24% 0 mm 905.0 W/m2
13:15 30.6 °C 7.7 °C 1015.5 hPa Calm   3.2 km/h 24% 0 mm 861.0 W/m2
13:29 31 °C 7.4 °C 1015.5 hPa SW 4.7 km/h 12.9 km/h 23% 0 mm 879.0 W/m2
13:39 31 °C 7.4 °C 1015.1 hPa Calm   12.9 km/h 23% 0 mm 659.0 W/m2
13:51 31.1 °C 8.1 °C 1015.1 hPa Calm   9.7 km/h 24% 0 mm 896.0 W/m2
14:06 31.4 °C 7.8 °C 1014.8 hPa Calm     23% 0 mm 744.0 W/m2
14:21 31.8 °C 8.1 °C 1014.4 hPa SW 4.7 km/h 11.3 km/h 23% 0 mm 856.0 W/m2
14:37 32.1 °C 9 °C 1014.4 hPa SW 16.3 km/h 17.7 km/h 24% 0 mm 821.0 W/m2
14:48 32.4 °C 9.2 °C 1014.1 hPa Calm     24% 0 mm 784.0 W/m2
14:52 32.5 °C 8.7 °C 1014.1 hPa SW 11.1 km/h 11.3 km/h 23% 0 mm 772.0 W/m2
15:05 32.4 °C 8.6 °C 1014.1 hPa Calm   9.7 km/h 23% 0 mm 742.0 W/m2
15:17 32.6 °C 8.8 °C 1013.8 hPa Calm   8 km/h 23% 0 mm 715.0 W/m2
15:46 33.2 °C 9.3 °C 1013.4 hPa SW 7.9 km/h 8 km/h 23% 0 mm 666.0 W/m2
15:56 33.3 °C 9.4 °C 1013.4 hPa SW 6.4 km/h 12.9 km/h 23% 0 mm 628.0 W/m2
16:06 33.4 °C 9.4 °C 1013.1 hPa Calm     23% 0 mm 584.0 W/m2
16:44 33.4 °C 8.8 °C 1013.1 hPa SSW 9.7 km/h 12.9 km/h 22% 0 mm 483.0 W/m2
16:57 33.6 °C 8.9 °C 1013.1 hPa SSW 11.1 km/h 16.1 km/h 22% 0 mm 454.0 W/m2
17:06 33.6 °C 8.9 °C 1013.1 hPa Calm   17.7 km/h 22% 0 mm 425.0 W/m2
17:19 33.4 °C 8.8 °C 1013.1 hPa SSW 4.7 km/h 12.9 km/h 22% 0 mm 394.0 W/m2
17:36 33.6 °C 8.9 °C 1012.8 hPa SSW 11.1 km/h 17.7 km/h 22% 0 mm 311.0 W/m2
17:51 33.4 °C 8.8 °C 1012.8 hPa SSW 17.7 km/h 19.3 km/h 22% 0 mm 260.0 W/m2
18:05 33.4 °C 8.8 °C 1012.8 hPa SSW 17.7 km/h 19.3 km/h 22% 0 mm 199.0 W/m2
18:35 32.8 °C 7.6 °C 1012.8 hPa SSW 11.1 km/h 25.7 km/h 21% 0 mm 63.0 W/m2
19:05 32.2 °C 7.8 °C 1013.1 hPa South 16.3 km/h 22.5 km/h 22% 0 mm 9.0 W/m2
19:36 30.9 °C 6.7 °C 1013.4 hPa South 22.7 km/h 29 km/h 22% 0 mm 0.0 W/m2
20:06 29.5 °C 4.2 °C 1014.1 hPa South 19.5 km/h 25.7 km/h 20% 0 mm 0.0 W/m2
20:20 29.2 °C 3.9 °C 1014.1 hPa South 14.3 km/h 25.7 km/h 20% 0 mm 0.0 W/m2
20:34 28.8 °C 3.6 °C 1014.1 hPa SSW 16.3 km/h 25.7 km/h 20% 0 mm 0.0 W/m2
20:45 28.6 °C 3.4 °C 1014.1 hPa SSW 22.7 km/h 22.7 km/h 20% 0 mm 0.0 W/m2
20:56 28.3 °C 2.5 °C 1014.4 hPa SSW 16.3 km/h 19.3 km/h 19% 0 mm 0.0 W/m2
Canyon Roadhouse, Fishriver Canyon, Namibia
Compliments of Weather Underground - 2 mb